EW9934 Weather Reports


Display with metric or nautical units.
time (UTC)temp
F
wind
direction
speed
MPH
gust
MPH
rain 1hr
in
rain 24hr
in
rain mn
in
humidity
%
barometer
mb
20181218231546 52 276 3.0 6.0 0.00 0.00 0.00 49 1023.9
20181218230043 54 316 1.0 4.0 0.00 0.00 0.00 48 1023.7
20181218224517 54 328 2.0 5.0 0.00 0.00 0.00 46 1023.8
20181218223029 55 242 0.0 5.0 0.00 0.00 0.00 43 1023.6
20181218221543 55 11 2.0 6.0 0.00 0.00 0.00 41 1023.7
20181218214504 56 267 1.0 4.0 0.00 0.00 0.00 39 1023.9
20181218213204 54 293 0.0 4.0 0.00 0.00 0.00 41 1023.9
20181218211703 54 4 1.0 5.0 0.00 0.00 0.00 43 1023.8
20181218210135 54 20 1.0 4.0 0.00 0.00 0.00 44 1023.8
20181218204645 53 13 1.0 4.0 0.00 0.00 0.00 42 1024.0
20181218203202 53 30 1.0 4.0 0.00 0.00 0.00 40 1024.0
20181218200057 52 332 0.0 3.0 0.00 0.00 0.00 46 1024.3
20181218194615 51 314 1.0 3.0 0.00 0.00 0.00 47 1024.6
20181218193124 51 352 2.0 6.0 0.00 0.00 0.00 47 1024.8
20181218191610 51 358 3.0 5.0 0.00 0.00 0.00 45 1025.0
20181218190055 51 256 0.0 2.0 0.00 0.00 0.00 50 1025.1
20181218184551 50 233 1.0 2.0 0.00 0.00 0.00 52 1025.2
20181218183109 48 231 0.0 2.0 0.00 0.00 0.00 54 1025.3
20181218181544 47 225 0.0 1.0 0.00 0.00 0.00 55 1025.4
20181218174537 44 34 0.0 1.0 0.00 0.00 0.00 63 1025.5
20181218173011 42 34 0.0 1.0 0.00 0.00 0.00 78 1025.6
20181218171506 41 37 0.0 1.0 0.00 0.00 0.00 84 1025.5
20181218170008 41 35 0.0 0.0 0.00 0.00 0.00 84 1025.4
20181218164506 41 35 0.0 1.0 0.00 0.00 0.00 81 1025.2
20181218163214 39 35 0.0 0.0 0.00 0.00 0.00 81 1025.1
20181218161759 38 35 0.0 0.0 0.00 0.00 0.00 86 1025.1
20181218160125 36 35 0.0 0.0 0.00 0.00 0.00 89 1025.0
20181218154714 35 35 0.0 0.0 0.00 0.00 0.00 91 1024.8
20181218153137 34 35 0.0 0.0 0.00 0.00 0.00 92 1024.7
20181218151649 34 35 0.0 0.0 0.00 0.00 0.00 92 1024.5
20181218150217 34 35 0.0 0.0 0.00 0.00 0.00 92 1024.2
20181218144644 33 35 0.0 0.0 0.00 0.00 0.00 96 1023.9
20181218143043 32 35 0.0 0.0 0.00 0.00 0.00 95 1023.6
20181218141607 33 35 0.0 0.0 0.00 0.00 0.00 93 1023.4
20181218140123 33 35 0.0 0.0 0.00 0.00 0.00 89 1023.2
20181218134609 34 35 0.0 0.0 0.00 0.00 0.00 81 1023.2
20181218133131 34 35 0.0 0.0 0.00 0.00 0.00 80 1023.0
20181218131553 32 35 0.0 1.0 0.00 0.00 0.00 95 1022.8
20181218130039 33 35 0.0 0.0 0.00 0.00 0.00 95 1022.8
20181218124545 33 35 0.0 0.0 0.00 0.00 0.00 94 1022.5
20181218123034 33 35 0.0 0.0 0.00 0.00 0.00 92 1022.4
20181218121532 32 35 0.0 0.0 0.00 0.00 0.00 92 1022.1
20181218120023 33 35 0.0 0.0 0.00 0.00 0.00 94 1022.0
20181218114519 33 35 0.0 0.0 0.00 0.00 0.00 94 1022.1
20181218113033 34 35 0.0 0.0 0.00 0.00 0.00 92 1022.3
20181218111516 34 35 0.0 1.0 0.00 0.00 0.00 85 1021.9
20181218110009 35 35 0.0 0.0 0.00 0.00 0.00 89 1022.2
20181218104506 36 35 0.0 1.0 0.00 0.00 0.00 80 1022.3
20181218103018 36 35 0.0 1.0 0.00 0.00 0.00 82 1022.2
20181218101512 35 36 0.0 1.0 0.00 0.00 0.00 87 1022.2
20181218100010 35 36 0.0 1.0 0.00 0.00 0.00 97 1022.3
20181218094651 34 36 0.0 1.0 0.00 0.00 0.00 96 1021.9
20181218093159 35 36 0.0 1.0 0.00 0.00 0.00 97 1022.3
20181218091647 35 35 0.0 0.0 0.00 0.00 0.00 96 1022.4
20181218084618 36 35 0.0 0.0 0.00 0.00 0.00 96 1022.1
20181218083111 36 35 0.0 0.0 0.00 0.00 0.00 96 1022.2
20181218081628 36 35 0.0 0.0 0.00 0.00 0.00 96 1022.4
20181218080107 37 35 0.0 0.0 0.00 0.00 0.00 95 1022.2
20181218074644 38 35 0.0 0.0 0.00 0.00 0.00 96 1022.1
20181218073141 38 35 0.0 1.0 0.00 0.00 0.00 96 1021.9
20181218071645 37 35 0.0 1.0 0.00 0.00 0.00 96 1021.9
20181218070111 38 37 0.0 1.0 0.00 0.00 0.00 95 1021.7
20181218064619 38 229 0.0 0.0 0.00 0.00 0.00 95 1021.5
20181218063111 37 233 0.0 1.0 0.00 0.00 0.00 94 1021.7
20181218061614 37 233 0.0 0.0 0.00 0.00 0.00 93 1021.5
20181218060055 37 233 0.0 1.0 0.00 0.00 0.00 94 1021.6
20181218054540 37 233 0.0 1.0 0.00 0.00 0.00 95 1021.2
20181218053106 37 233 0.0 1.0 0.00 0.00 0.00 94 1021.1
20181218051542 37 241 0.0 0.0 0.00 0.00 0.00 92 1020.9
20181218050046 37 241 0.0 0.0 0.00 0.00 0.00 91 1020.9
20181218044536 38 241 0.0 1.0 0.00 0.00 0.00 91 1021.1
20181218043029 39 241 0.0 1.0 0.00 0.00 0.00 91 1021.1
20181218041516 39 195 0.0 4.0 0.00 0.00 0.00 90 1021.2
20181218040024 39 214 0.0 1.0 0.00 0.00 0.00 89 1021.1
20181218034508 39 326 0.0 2.0 0.00 0.00 0.00 88 1020.5
20181218033252 40 201 0.0 1.0 0.00 0.00 0.00 88 1020.2
20181218031710 39 205 0.0 1.0 0.00 0.00 0.00 87 1020.0
20181218030154 40 129 0.0 3.0 0.00 0.00 0.00 86 1019.9
20181218024629 40 273 0.0 1.0 0.00 0.00 0.00 85 1019.8
20181218023138 40 334 0.0 1.0 0.00 0.00 0.00 85 1019.6
20181218021617 40 262 0.0 1.0 0.00 0.00 0.00 83 1019.2
20181218020110 41 265 0.0 1.0 0.00 0.00 0.00 82 1018.9
20181218014628 41 210 0.0 2.0 0.00 0.00 0.00 80 1019.1
20181218013146 42 214 0.0 1.0 0.00 0.00 0.00 82 1018.8
20181218011606 42 298 1.0 4.0 0.00 0.00 0.00 81 1018.6
20181218010056 43 74 0.0 2.0 0.00 0.00 0.00 82 1018.5
20181218004604 44 272 1.0 2.0 0.00 0.00 0.00 81 1018.4
20181218003025 46 302 0.0 2.0 0.00 0.00 0.00 74 1018.6
20181218001537 49 306 0.0 3.0 0.00 0.00 0.00 69 1018.3
20181218000035 51 281 0.0 3.0 0.00 0.00 0.00 64 1018.1
20181217234512 53 305 0.0 2.0 0.00 0.00 0.00 61 1018.1
20181217233012 53 216 0.0 3.0 0.00 0.00 0.00 62 1018.3